createdAt,value
2024-01-06T00:01:54.569Z,100148.25
2024-01-06T00:04:26.676Z,100137.06
2024-01-06T00:06:54.954Z,100143.94
2024-01-06T00:09:23.100Z,100148.81
2024-01-06T00:11:51.483Z,100158.22
2024-01-06T00:14:19.838Z,100160.88
2024-01-06T00:16:47.872Z,100160.97
2024-01-06T00:19:16.061Z,100164.53
2024-01-06T00:21:45.600Z,100163.50
2024-01-06T00:24:13.738Z,100168.13
2024-01-06T00:26:41.866Z,100170.66
2024-01-06T00:29:12.848Z,100174.59
2024-01-06T00:31:41.004Z,100170.03
2024-01-06T00:34:09.222Z,100180.38
2024-01-06T00:36:37.738Z,100179.63
2024-01-06T00:39:07.196Z,100182.34
2024-01-06T00:41:35.268Z,100192.94
2024-01-06T00:44:03.295Z,100200.38
2024-01-06T00:46:31.432Z,100198.06
2024-01-06T00:49:02.397Z,100192.13
2024-01-06T00:51:30.848Z,100193.09
2024-01-06T00:53:58.972Z,100195.78
2024-01-06T00:56:31.449Z,100192.81
2024-01-06T00:59:02.567Z,100193.88
2024-01-06T01:01:30.708Z,100195.31
2024-01-06T01:03:58.907Z,100200.53
2024-01-06T01:06:27.297Z,100195.63
2024-01-06T01:08:55.444Z,100200.16
2024-01-06T01:11:23.620Z,100201.97
2024-01-06T01:13:53.383Z,100202.75
2024-01-06T01:16:21.622Z,100205.63
2024-01-06T01:18:50.104Z,100215.41
2024-01-06T01:21:18.312Z,100218.97
2024-01-06T01:23:46.832Z,100219.78
2024-01-06T01:26:14.922Z,100221.63
2024-01-06T01:28:43.767Z,100224.09
2024-01-06T01:31:14.683Z,100231.13
2024-01-06T01:33:42.886Z,100231.03
2024-01-06T01:36:11.219Z,100243.94
2024-01-06T01:38:42.321Z,100241.38
2024-01-06T01:41:10.383Z,100241.25
2024-01-06T01:43:39.103Z,100240.53
2024-01-06T01:46:07.582Z,100243.28
2024-01-06T01:48:37.177Z,100244.34
2024-01-06T01:51:06.889Z,100252.78
2024-01-06T01:53:35.218Z,100250.31
2024-01-06T01:56:05.404Z,100262.56
2024-01-06T01:58:33.686Z,100269.47
2024-01-06T02:01:02.095Z,100266.00
2024-01-06T02:03:32.383Z,100273.13
2024-01-06T02:06:01.995Z,100278.53
2024-01-06T02:08:31.438Z,100285.44
2024-01-06T02:11:02.434Z,100290.41
2024-01-06T02:13:36.400Z,100290.34
2024-01-06T02:16:05.684Z,100293.94
2024-01-06T02:18:35.161Z,100293.88
2024-01-06T02:21:05.427Z,100299.50
2024-01-06T02:23:37.833Z,100301.88
2024-01-06T02:26:06.297Z,100303.84
2024-01-06T02:28:36.451Z,100302.28
2024-01-06T02:31:04.921Z,100302.25
2024-01-06T02:33:33.144Z,100310.97
2024-01-06T02:36:01.292Z,100311.94
2024-01-06T02:38:29.391Z,100319.69
2024-01-06T02:40:58.838Z,100324.25
2024-01-06T02:43:27.615Z,100324.25
2024-01-06T02:45:55.680Z,100326.00
2024-01-06T02:48:24.429Z,100329.66
2024-01-06T02:50:52.665Z,100342.44
2024-01-06T02:53:20.737Z,100346.66
2024-01-06T02:55:48.875Z,100343.44
2024-01-06T02:58:18.583Z,100339.09
2024-01-06T03:00:46.849Z,100352.78
2024-01-06T03:03:15.068Z,100350.19
2024-01-06T03:05:43.398Z,100353.78
2024-01-06T03:08:13.494Z,100353.25
2024-01-06T03:10:41.681Z,100351.38
2024-01-06T03:13:09.893Z,100364.38
2024-01-06T03:15:39.374Z,100370.63
2024-01-06T03:18:07.915Z,100363.63
2024-01-06T03:20:36.330Z,100368.75
2024-01-06T03:23:04.584Z,100376.28
2024-01-06T03:25:34.718Z,100369.72
2024-01-06T03:28:03.605Z,100373.16
2024-01-06T03:30:31.842Z,100381.19
2024-01-06T03:33:01.450Z,100383.00
2024-01-06T03:35:29.633Z,100383.50
2024-01-06T03:37:57.746Z,100386.38
2024-01-06T03:40:25.903Z,100389.66
2024-01-06T03:42:55.232Z,100396.94
2024-01-06T03:45:27.186Z,100391.72
2024-01-06T03:47:55.436Z,100397.69
2024-01-06T03:50:24.972Z,100392.41
2024-01-06T03:52:54.239Z,100401.69
2024-01-06T03:55:22.584Z,100397.63
2024-01-06T03:57:50.781Z,100402.81
2024-01-06T04:00:19.685Z,100412.41
2024-01-06T04:02:47.841Z,100410.75
2024-01-06T04:05:16.159Z,100415.06
2024-01-06T04:07:45.712Z,100417.91
2024-01-06T04:10:16.302Z,100417.25
2024-01-06T04:12:44.490Z,100415.38
2024-01-06T04:15:12.738Z,100413.50
2024-01-06T04:17:42.355Z,100422.16
2024-01-06T04:20:13.780Z,100420.34
2024-01-06T04:22:40.971Z,100417.91
2024-01-06T04:25:10.723Z,100426.97
2024-01-06T04:27:41.604Z,100420.91
2024-01-06T04:30:10.892Z,100422.81
2024-01-06T04:32:39.363Z,100425.28
2024-01-06T04:35:10.918Z,100430.47
2024-01-06T04:37:39.004Z,100424.47
2024-01-06T04:40:09.059Z,100432.16
2024-01-06T04:42:38.607Z,100425.66
2024-01-06T04:45:10.483Z,100434.25
2024-01-06T04:47:38.928Z,100428.38
2024-01-06T04:50:08.335Z,100441.31
2024-01-06T04:52:36.888Z,100448.34
2024-01-06T04:55:05.404Z,100451.78
2024-01-06T04:57:33.628Z,100451.78
2024-01-06T05:00:03.104Z,100454.63
2024-01-06T05:02:31.586Z,100456.63
2024-01-06T05:04:59.735Z,100462.03
2024-01-06T05:07:28.914Z,100459.34
2024-01-06T05:09:57.311Z,100475.16
2024-01-06T05:12:25.892Z,100470.09
2024-01-06T05:14:54.320Z,100470.09
2024-01-06T05:17:24.147Z,100476.94
2024-01-06T05:19:52.506Z,100471.66
2024-01-06T05:22:20.759Z,100468.78
2024-01-06T05:24:48.851Z,100475.03
2024-01-06T05:27:17.123Z,100477.75
2024-01-06T05:29:50.183Z,100488.38
2024-01-06T05:32:21.494Z,100490.22
2024-01-06T05:34:51.370Z,100496.19
2024-01-06T05:37:21.874Z,100497.19
2024-01-06T05:39:51.221Z,100500.59
2024-01-06T05:42:19.349Z,100501.38
2024-01-06T05:44:49.708Z,100500.41
2024-01-06T05:47:18.080Z,100514.31
2024-01-06T05:49:46.409Z,100519.50
2024-01-06T05:52:17.121Z,100525.00
2024-01-06T05:54:45.421Z,100519.75
2024-01-06T05:57:13.992Z,100522.34
2024-01-06T05:59:42.191Z,100526.75
2024-01-06T06:02:10.504Z,100522.63
2024-01-06T06:04:38.634Z,100533.28
2024-01-06T06:07:06.785Z,100534.13
2024-01-06T06:09:36.705Z,100547.84
2024-01-06T06:12:05.367Z,100552.13
2024-01-06T06:14:33.515Z,100559.25
2024-01-06T06:17:01.652Z,100556.59
2024-01-06T06:19:32.421Z,100558.25
2024-01-06T06:22:01.578Z,100565.09
2024-01-06T06:24:30.685Z,100568.72
2024-01-06T06:27:03.526Z,100580.66
2024-01-06T06:29:31.627Z,100582.53
2024-01-06T06:32:00.694Z,100594.63
2024-01-06T06:34:29.161Z,100598.19
2024-01-06T06:36:57.267Z,100604.22
2024-01-06T06:39:25.641Z,100613.03
2024-01-06T06:41:53.862Z,100611.50
2024-01-06T06:44:24.805Z,100610.81
2024-01-06T06:46:53.002Z,100622.78
2024-01-06T06:49:21.220Z,100623.69
2024-01-06T06:51:49.810Z,100623.09
2024-01-06T06:54:18.484Z,100632.72
2024-01-06T06:56:46.749Z,100635.38
2024-01-06T06:59:15.408Z,100644.31
2024-01-06T07:01:44.935Z,100648.56
2024-01-06T07:04:13.138Z,100643.50
2024-01-06T07:06:41.251Z,100640.63
2024-01-06T07:09:09.320Z,100650.09
2024-01-06T07:11:38.380Z,100660.78
2024-01-06T07:14:06.444Z,100670.34
2024-01-06T07:16:34.718Z,100675.72
2024-01-06T07:19:04.341Z,100684.47
2024-01-06T07:21:35.540Z,100687.06
2024-01-06T07:24:03.713Z,100687.91
2024-01-06T07:26:31.746Z,100684.28
2024-01-06T07:28:59.830Z,100686.16
2024-01-06T07:31:28.231Z,100692.44
2024-01-06T07:33:59.525Z,100687.16
2024-01-06T07:36:29.159Z,100692.38
2024-01-06T07:38:57.512Z,100697.56
2024-01-06T07:41:25.624Z,100702.75
2024-01-06T07:43:53.716Z,100707.88
2024-01-06T07:46:21.848Z,100710.53
2024-01-06T07:48:50.322Z,100716.41
2024-01-06T07:51:18.515Z,100721.81
2024-01-06T07:53:48.055Z,100727.91
2024-01-06T07:56:16.404Z,100725.41
2024-01-06T07:58:44.538Z,100729.00
2024-01-06T08:01:15.705Z,100737.56
2024-01-06T08:03:45.287Z,100741.09
2024-01-06T08:06:17.167Z,100753.47
2024-01-06T08:08:46.981Z,100752.72
2024-01-06T08:11:16.553Z,100767.41
2024-01-06T08:13:44.976Z,100760.75
2024-01-06T08:16:13.215Z,100762.34
2024-01-06T08:18:41.493Z,100767.63
2024-01-06T08:21:09.823Z,100776.25
2024-01-06T08:23:40.662Z,100784.03
2024-01-06T08:26:12.582Z,100784.03
2024-01-06T08:28:43.062Z,100790.22
2024-01-06T08:31:11.268Z,100796.84
2024-01-06T08:33:39.530Z,100802.47
2024-01-06T08:36:08.291Z,100804.06
2024-01-06T08:38:36.705Z,100803.03
2024-01-06T08:41:05.251Z,100803.88
2024-01-06T08:43:33.429Z,100815.94
2024-01-06T08:46:03.389Z,100817.94
2024-01-06T08:48:35.151Z,100818.16
2024-01-06T08:51:04.029Z,100825.91
2024-01-06T08:53:32.202Z,100830.09
2024-01-06T08:56:00.270Z,100824.84
2024-01-06T08:58:28.633Z,100828.31
2024-01-06T09:00:56.906Z,100837.09
2024-01-06T09:03:27.751Z,100838.81
2024-01-06T09:05:58.134Z,100842.91
2024-01-06T09:08:26.339Z,100848.97
2024-01-06T09:10:58.201Z,100855.81
2024-01-06T09:13:27.178Z,100859.38
2024-01-06T09:15:56.352Z,100860.13
2024-01-06T09:18:27.543Z,100860.06
2024-01-06T09:20:55.091Z,100869.78
2024-01-06T09:23:25.076Z,100871.66
2024-01-06T09:25:53.973Z,100876.16
2024-01-06T09:28:23.089Z,100881.41
2024-01-06T09:30:53.657Z,100881.47
2024-01-06T09:33:22.022Z,100885.69
2024-01-06T09:35:52.008Z,100885.19
2024-01-06T09:38:20.566Z,100890.50
2024-01-06T09:40:50.515Z,100895.69
2024-01-06T09:43:18.709Z,100903.41
2024-01-06T09:45:50.869Z,100903.41
2024-01-06T09:48:20.146Z,100909.38
2024-01-06T09:50:49.740Z,100912.84
2024-01-06T09:53:20.293Z,100916.44
2024-01-06T09:55:53.204Z,100920.75
2024-01-06T09:58:24.173Z,100925.81
2024-01-06T10:00:52.457Z,100926.78
2024-01-06T10:03:20.724Z,100931.84
2024-01-06T10:05:49.509Z,100922.25
2024-01-06T10:08:19.557Z,100930.03
2024-01-06T10:10:47.901Z,100933.50
2024-01-06T10:13:19.532Z,100943.66
2024-01-06T10:15:47.870Z,100941.19
2024-01-06T10:18:16.383Z,100943.84
2024-01-06T10:20:46.506Z,100943.69
2024-01-06T10:23:15.704Z,100942.75
2024-01-06T10:25:45.274Z,100941.00
2024-01-06T10:28:15.050Z,100958.34
2024-01-06T10:30:44.135Z,100953.09
2024-01-06T10:33:12.611Z,100955.75
2024-01-06T10:35:41.662Z,100959.50
2024-01-06T10:38:09.877Z,100956.00
2024-01-06T10:40:37.951Z,100961.22
2024-01-06T10:43:08.684Z,100958.53
2024-01-06T10:45:37.853Z,100956.91
2024-01-06T10:48:08.408Z,100961.03
2024-01-06T10:50:36.614Z,100966.22
2024-01-06T10:53:05.896Z,100966.22
2024-01-06T10:55:34.872Z,100969.53
2024-01-06T10:58:08.708Z,100977.38
2024-01-06T11:00:36.904Z,100982.66
2024-01-06T11:03:07.584Z,100986.94
2024-01-06T11:05:36.193Z,100985.25
2024-01-06T11:08:06.033Z,100989.56
2024-01-06T11:10:35.128Z,100996.75
2024-01-06T11:13:14.600Z,100989.69
2024-01-06T11:15:44.963Z,100994.91
2024-01-06T11:18:35.228Z,100999.25
2024-01-06T11:21:23.589Z,101001.97
2024-01-06T11:24:18.551Z,101007.19
2024-01-06T11:26:47.598Z,100994.31
2024-01-06T11:29:17.158Z,100994.34
2024-01-06T11:31:45.592Z,100996.78
2024-01-06T11:34:20.319Z,101001.25
2024-01-06T11:36:50.760Z,100996.03
2024-01-06T11:39:38.061Z,101006.31
2024-01-06T11:42:09.051Z,101005.28
2024-01-06T11:44:41.467Z,101001.94
2024-01-06T11:47:13.127Z,101005.56
2024-01-06T11:49:41.469Z,101009.19
2024-01-06T11:52:09.641Z,101009.91
2024-01-06T11:54:38.246Z,101011.59
2024-01-06T11:57:06.648Z,101009.88
2024-01-06T11:59:34.768Z,101010.69
2024-01-06T12:02:07.677Z,101003.84
2024-01-06T12:04:35.905Z,101010.75
2024-01-06T12:07:15.560Z,101016.63
2024-01-06T12:09:43.833Z,101013.97
2024-01-06T12:12:12.026Z,101005.28
2024-01-06T12:14:40.189Z,101015.59
2024-01-06T12:17:09.869Z,101010.41
2024-01-06T12:19:40.748Z,101009.59
2024-01-06T12:22:09.580Z,101007.88
2024-01-06T12:24:38.630Z,101014.03
2024-01-06T12:27:09.359Z,101004.69
2024-01-06T12:29:40.090Z,101018.44
2024-01-06T12:32:10.971Z,101014.88
2024-01-06T12:34:40.506Z,101006.25
2024-01-06T12:37:09.539Z,101013.97
2024-01-06T12:39:37.758Z,101012.41
2024-01-06T12:42:06.542Z,101019.22
2024-01-06T12:44:38.103Z,101019.16
2024-01-06T12:47:06.716Z,101017.47
2024-01-06T12:49:39.224Z,101013.06
2024-01-06T12:52:08.323Z,101018.66
2024-01-06T12:54:36.465Z,101013.56
2024-01-06T12:57:04.973Z,101022.31
2024-01-06T12:59:33.000Z,101023.03
2024-01-06T13:02:01.227Z,101026.44
2024-01-06T13:04:29.509Z,101025.63
2024-01-06T13:07:02.917Z,101021.31
2024-01-06T13:09:31.939Z,101025.66
2024-01-06T13:12:01.546Z,101028.13
2024-01-06T13:14:31.210Z,101034.97
2024-01-06T13:16:59.514Z,101029.88
2024-01-06T13:19:28.575Z,101038.69
2024-01-06T13:21:58.274Z,101045.75
2024-01-06T13:24:26.681Z,101045.72
2024-01-06T13:26:54.742Z,101049.06
2024-01-06T13:29:22.807Z,101054.19
2024-01-06T13:31:54.208Z,101056.78
2024-01-06T13:34:22.898Z,101057.63
2024-01-06T13:36:52.668Z,101050.69
2024-01-06T13:39:23.532Z,101058.59
2024-01-06T13:41:52.085Z,101060.13
2024-01-06T13:44:20.173Z,101058.50
2024-01-06T13:46:50.206Z,101060.16
2024-01-06T13:49:21.196Z,101061.06
2024-01-06T13:51:49.536Z,101065.03
2024-01-06T13:54:20.436Z,101052.34
2024-01-06T13:56:50.374Z,101059.28
2024-01-06T13:59:21.270Z,101054.00
2024-01-06T14:01:49.823Z,101058.41
2024-01-06T14:04:18.430Z,101064.56
2024-01-06T14:06:49.172Z,101063.81
2024-01-06T14:09:17.652Z,101062.13
2024-01-06T14:11:46.194Z,101075.91
2024-01-06T14:14:18.611Z,101075.69
2024-01-06T14:16:47.953Z,101080.09
2024-01-06T14:19:16.252Z,101087.13
2024-01-06T14:21:44.470Z,101081.06
2024-01-06T14:24:13.178Z,101086.25
2024-01-06T14:26:43.596Z,101090.34
2024-01-06T14:29:12.540Z,101101.72
2024-01-06T14:31:45.096Z,101099.31
2024-01-06T14:34:13.688Z,101103.47
2024-01-06T14:36:48.711Z,101112.00
2024-01-06T14:39:20.128Z,101113.84
2024-01-06T14:41:48.688Z,101117.41
2024-01-06T14:44:16.825Z,101123.41
2024-01-06T14:46:46.299Z,101124.31
2024-01-06T14:49:14.565Z,101120.13
2024-01-06T14:51:42.713Z,101135.66
2024-01-06T14:54:12.790Z,101133.06
2024-01-06T14:56:42.128Z,101128.13
2024-01-06T14:59:10.517Z,101140.25
2024-01-06T15:01:46.521Z,101129.84
2024-01-06T15:04:14.928Z,101144.50
2024-01-06T15:06:43.424Z,101148.88
2024-01-06T15:09:11.680Z,101141.75
2024-01-06T15:11:39.811Z,101150.38
2024-01-06T15:14:09.993Z,101161.75
2024-01-06T15:16:38.872Z,101163.53
2024-01-06T15:19:09.125Z,101167.81
2024-01-06T15:21:38.379Z,101161.75
2024-01-06T15:24:07.345Z,101168.56
2024-01-06T15:26:36.097Z,101175.56
2024-01-06T15:29:03.316Z,101181.63
2024-01-06T15:31:33.081Z,101176.50
2024-01-06T15:34:01.484Z,101184.22
2024-01-06T15:36:30.983Z,101181.59
2024-01-06T15:38:59.210Z,101188.34
2024-01-06T15:41:27.375Z,101187.56
2024-01-06T15:43:55.486Z,101188.53
2024-01-06T15:46:23.613Z,101203.16
2024-01-06T15:48:51.880Z,101207.44
2024-01-06T15:51:20.138Z,101206.75
2024-01-06T15:53:49.711Z,101210.97
2024-01-06T15:56:17.985Z,101207.63
2024-01-06T15:58:46.130Z,101208.44
2024-01-06T16:01:14.584Z,101216.13
2024-01-06T16:03:42.766Z,101224.16
2024-01-06T16:06:11.341Z,101212.94
2024-01-06T16:08:39.492Z,101220.78
2024-01-06T16:11:09.297Z,101225.03
2024-01-06T16:13:37.621Z,101236.22
2024-01-06T16:16:06.848Z,101234.38
2024-01-06T16:18:35.157Z,101234.25
2024-01-06T16:21:04.750Z,101236.88
2024-01-06T16:23:32.936Z,101239.44
2024-01-06T16:26:05.424Z,101248.09
2024-01-06T16:28:36.006Z,101251.59
2024-01-06T16:31:04.250Z,101257.88
2024-01-06T16:33:32.492Z,101257.97
2024-01-06T16:36:00.636Z,101264.88
2024-01-06T16:38:31.758Z,101258.81
2024-01-06T16:41:01.217Z,101255.34
2024-01-06T16:43:29.390Z,101264.09
2024-01-06T16:45:58.925Z,101263.16
2024-01-06T16:48:27.377Z,101265.88
2024-01-06T16:50:57.752Z,101274.53
2024-01-06T16:53:25.858Z,101270.28
2024-01-06T16:55:54.174Z,101271.88
2024-01-06T16:58:22.345Z,101268.44
2024-01-06T17:00:50.604Z,101269.28
2024-01-06T17:03:20.229Z,101266.81
2024-01-06T17:05:48.529Z,101278.03
2024-01-06T17:08:16.874Z,101269.44
2024-01-06T17:10:45.066Z,101277.16
2024-01-06T17:13:13.281Z,101273.63
2024-01-06T17:15:41.505Z,101278.88
2024-01-06T17:18:09.789Z,101281.44
2024-01-06T17:20:40.772Z,101283.19
2024-01-06T17:23:08.967Z,101284.91
2024-01-06T17:25:37.023Z,101289.41
2024-01-06T17:28:06.058Z,101290.25
2024-01-06T17:30:34.366Z,101292.69
2024-01-06T17:33:02.635Z,101293.53
2024-01-06T17:35:30.702Z,101299.63
2024-01-06T17:38:00.309Z,101299.59
2024-01-06T17:40:28.457Z,101299.59
2024-01-06T17:42:56.627Z,101305.59
2024-01-06T17:45:26.184Z,101309.09
2024-01-06T17:47:54.399Z,101315.28
2024-01-06T17:50:22.579Z,101313.50
2024-01-06T17:52:51.268Z,101319.69
2024-01-06T17:55:23.445Z,101322.97
2024-01-06T17:57:51.815Z,101321.28
2024-01-06T18:00:20.423Z,101324.00
2024-01-06T18:02:48.732Z,101329.28
2024-01-06T18:05:17.687Z,101326.69
2024-01-06T18:07:45.929Z,101333.59
2024-01-06T18:10:16.115Z,101329.31
2024-01-06T18:12:45.832Z,101331.91
2024-01-06T18:15:13.984Z,101336.38
2024-01-06T18:17:42.212Z,101340.69
2024-01-06T18:20:11.389Z,101339.91
2024-01-06T18:22:40.286Z,101333.09
2024-01-06T18:25:09.644Z,101340.69
2024-01-06T18:27:37.884Z,101339.09
2024-01-06T18:30:09.063Z,101342.50
2024-01-06T18:32:37.310Z,101339.03
2024-01-06T18:35:07.597Z,101341.56
2024-01-06T18:37:36.065Z,101354.44
2024-01-06T18:40:05.643Z,101350.16
2024-01-06T18:42:34.343Z,101350.16
2024-01-06T18:45:02.925Z,101354.50
2024-01-06T18:47:32.461Z,101353.75
2024-01-06T18:50:00.889Z,101354.59
2024-01-06T18:52:29.107Z,101366.69
2024-01-06T18:54:57.233Z,101361.59
2024-01-06T18:57:26.186Z,101362.41
2024-01-06T18:59:55.188Z,101363.25
2024-01-06T19:02:23.413Z,101363.97
2024-01-06T19:04:52.968Z,101370.91
2024-01-06T19:07:21.085Z,101375.38
2024-01-06T19:09:49.240Z,101374.44
2024-01-06T19:12:17.434Z,101371.91
2024-01-06T19:14:46.970Z,101378.16
2024-01-06T19:17:15.224Z,101384.94
2024-01-06T19:19:44.484Z,101384.00
2024-01-06T19:22:14.074Z,101381.38
2024-01-06T19:24:44.080Z,101388.22
2024-01-06T19:27:12.700Z,101379.56
2024-01-06T19:29:44.057Z,101393.34
2024-01-06T19:32:12.806Z,101391.75
2024-01-06T19:34:42.349Z,101398.72
2024-01-06T19:37:11.068Z,101402.16
2024-01-06T19:39:40.724Z,101405.69
2024-01-06T19:42:09.180Z,101412.72
2024-01-06T19:44:37.461Z,101415.34
2024-01-06T19:47:06.965Z,101407.59
2024-01-06T19:49:35.190Z,101416.34
2024-01-06T19:52:03.971Z,101424.91
2024-01-06T19:54:35.818Z,101417.19
2024-01-06T19:57:05.869Z,101426.56
2024-01-06T19:59:33.951Z,101430.94
2024-01-06T20:02:02.152Z,101425.69
2024-01-06T20:04:30.334Z,101427.41
2024-01-06T20:06:58.702Z,101428.34
2024-01-06T20:09:27.455Z,101433.56
2024-01-06T20:11:55.635Z,101428.22
2024-01-06T20:14:27.757Z,101433.44
2024-01-06T20:16:57.089Z,101438.63
2024-01-06T20:19:25.438Z,101429.28
2024-01-06T20:21:53.739Z,101431.94
2024-01-06T20:24:22.390Z,101438.88
2024-01-06T20:26:50.529Z,101439.69
2024-01-06T20:29:21.221Z,101439.72
2024-01-06T20:31:53.915Z,101442.34
2024-01-06T20:34:22.226Z,101444.94
2024-01-06T20:36:50.550Z,101451.09
2024-01-06T20:39:19.164Z,101451.84
2024-01-06T20:41:47.237Z,101451.81
2024-01-06T20:44:15.282Z,101456.09
2024-01-06T20:46:44.103Z,101457.91
2024-01-06T20:49:13.766Z,101452.69
2024-01-06T20:51:42.141Z,101456.19
2024-01-06T20:54:10.315Z,101458.78
2024-01-06T20:56:38.544Z,101458.78
2024-01-06T20:59:07.674Z,101470.84
2024-01-06T21:01:36.068Z,101467.41
2024-01-06T21:04:04.296Z,101468.25
2024-01-06T21:06:33.819Z,101464.75
2024-01-06T21:09:01.841Z,101473.38
2024-01-06T21:11:32.960Z,101468.22
2024-01-06T21:14:01.007Z,101464.81
2024-01-06T21:16:29.101Z,101473.50
2024-01-06T21:18:57.300Z,101467.47
2024-01-06T21:21:25.667Z,101477.78
2024-01-06T21:23:55.198Z,101472.59
2024-01-06T21:26:25.657Z,101478.72
2024-01-06T21:28:59.230Z,101468.50
2024-01-06T21:31:28.937Z,101468.50
2024-01-06T21:33:58.687Z,101470.22
2024-01-06T21:36:27.030Z,101467.63
2024-01-06T21:38:58.789Z,101469.38
2024-01-06T21:41:27.033Z,101468.41
2024-01-06T21:43:55.094Z,101471.94
2024-01-06T21:46:23.347Z,101484.84
2024-01-06T21:48:51.681Z,101480.50
2024-01-06T21:51:22.087Z,101487.56
2024-01-06T21:53:50.266Z,101484.97
2024-01-06T21:56:19.722Z,101488.47
2024-01-06T21:58:47.847Z,101488.34
2024-01-06T22:01:15.990Z,101492.63
2024-01-06T22:03:44.331Z,101493.53
2024-01-06T22:06:12.556Z,101492.69
2024-01-06T22:08:43.472Z,101498.72
2024-01-06T22:11:11.712Z,101502.13
2024-01-06T22:13:41.132Z,101499.47
2024-01-06T22:16:09.201Z,101501.22
2024-01-06T22:18:40.532Z,101502.09
2024-01-06T22:21:09.030Z,101500.41
2024-01-06T22:23:37.065Z,101497.97
2024-01-06T22:26:05.424Z,101505.66
2024-01-06T22:28:33.591Z,101506.63
2024-01-06T22:31:05.748Z,101510.91
2024-01-06T22:33:34.019Z,101513.50
2024-01-06T22:36:04.076Z,101508.25
2024-01-06T22:38:40.270Z,101516.00
2024-01-06T22:41:16.811Z,101513.38
2024-01-06T22:43:44.876Z,101515.06
2024-01-06T22:46:15.023Z,101519.53
2024-01-06T22:48:44.604Z,101530.78
2024-01-06T22:51:13.119Z,101528.19
2024-01-06T22:53:42.973Z,101530.84
2024-01-06T22:56:11.730Z,101529.13
2024-01-06T22:58:39.894Z,101533.38
2024-01-06T23:01:08.334Z,101541.19
2024-01-06T23:03:39.422Z,101539.53
2024-01-06T23:06:08.832Z,101536.13
2024-01-06T23:08:37.266Z,101546.47
2024-01-06T23:11:13.176Z,101542.16
2024-01-06T23:13:41.542Z,101546.50
2024-01-06T23:16:09.271Z,101545.53
2024-01-06T23:18:38.919Z,101542.13
2024-01-06T23:21:07.093Z,101548.16
2024-01-06T23:23:35.271Z,101546.44
2024-01-06T23:26:03.388Z,101553.44
2024-01-06T23:28:31.544Z,101552.63
2024-01-06T23:30:59.785Z,101549.97
2024-01-06T23:33:28.104Z,101555.19
2024-01-06T23:35:58.075Z,101548.28
2024-01-06T23:38:26.242Z,101556.03
2024-01-06T23:40:57.122Z,101559.47
2024-01-06T23:43:25.209Z,101563.78
2024-01-06T23:45:53.357Z,101560.38
2024-01-06T23:48:23.439Z,101564.66
2024-01-06T23:50:52.066Z,101564.69
2024-01-06T23:53:22.759Z,101567.34
2024-01-06T23:55:50.933Z,101574.28
2024-01-06T23:58:19.044Z,101578.59
